createdAt,value
2022-10-30T00:01:04.474Z,100602.25
2022-10-30T00:03:33.070Z,100614.25
2022-10-30T00:06:05.800Z,100610.44
2022-10-30T00:08:34.619Z,100613.69
2022-10-30T00:11:09.359Z,100605.66
2022-10-30T00:13:38.153Z,100605.34
2022-10-30T00:16:09.305Z,100601.81
2022-10-30T00:18:38.609Z,100586.31
2022-10-30T00:21:08.895Z,100593.44
2022-10-30T00:23:37.930Z,100592.84
2022-10-30T00:26:08.637Z,100592.44
2022-10-30T00:28:37.093Z,100580.44
2022-10-30T00:31:06.713Z,100572.03
2022-10-30T00:33:35.961Z,100578.66
2022-10-30T00:36:06.756Z,100584.78
2022-10-30T00:38:36.192Z,100584.75
2022-10-30T00:41:04.833Z,100597.78
2022-10-30T00:43:37.052Z,100593.19
2022-10-30T00:46:10.111Z,100587.81
2022-10-30T00:48:39.010Z,100578.56
2022-10-30T00:51:09.244Z,100578.88
2022-10-30T00:53:37.754Z,100575.03
2022-10-30T00:56:08.303Z,100575.94
2022-10-30T00:58:42.215Z,100577.34
2022-10-30T01:01:13.364Z,100573.91
2022-10-30T01:03:42.358Z,100572.41
2022-10-30T01:06:13.102Z,100573.09
2022-10-30T01:08:42.655Z,100579.47
2022-10-30T01:11:11.852Z,100575.63
2022-10-30T01:13:42.791Z,100572.66
2022-10-30T01:16:34.775Z,100580.66
2022-10-30T01:19:13.701Z,100573.16
2022-10-30T01:21:51.961Z,100571.00
2022-10-30T01:24:32.220Z,100568.53
2022-10-30T01:27:02.991Z,100578.97
2022-10-30T01:29:35.427Z,100584.94
2022-10-30T01:32:15.446Z,100584.97
2022-10-30T01:34:50.571Z,100582.59
2022-10-30T01:37:23.637Z,100579.56
2022-10-30T01:39:52.218Z,100577.78
2022-10-30T01:42:54.176Z,100594.84
2022-10-30T01:45:40.969Z,100590.13
2022-10-30T01:48:21.327Z,100586.25
2022-10-30T01:50:57.872Z,100588.72
2022-10-30T01:53:37.466Z,100589.00
2022-10-30T01:56:16.949Z,100589.13
2022-10-30T01:58:52.040Z,100590.56
2022-10-30T02:01:24.307Z,100584.53
2022-10-30T02:03:53.174Z,100582.66
2022-10-30T02:06:22.580Z,100584.63
2022-10-30T02:08:51.987Z,100580.28
2022-10-30T02:11:20.651Z,100587.91
2022-10-30T02:13:49.041Z,100586.44
2022-10-30T02:16:17.710Z,100587.84
2022-10-30T02:18:47.783Z,100590.91
2022-10-30T02:21:17.975Z,100583.47
2022-10-30T02:23:46.655Z,100579.81
2022-10-30T02:26:15.982Z,100574.59
2022-10-30T02:28:44.215Z,100579.13
2022-10-30T02:31:12.904Z,100577.19
2022-10-30T02:33:45.965Z,100586.78
2022-10-30T02:36:15.660Z,100577.72
2022-10-30T02:38:46.059Z,100580.53
2022-10-30T02:41:14.800Z,100576.47
2022-10-30T02:43:43.679Z,100579.06
2022-10-30T02:46:12.275Z,100583.59
2022-10-30T02:48:40.926Z,100593.69
2022-10-30T02:51:10.339Z,100589.78
2022-10-30T02:53:39.809Z,100584.03
2022-10-30T02:56:12.984Z,100588.78
2022-10-30T02:58:42.842Z,100594.84
2022-10-30T03:01:13.255Z,100582.31
2022-10-30T03:03:42.858Z,100593.19
2022-10-30T03:06:15.719Z,100590.53
2022-10-30T03:08:45.014Z,100591.06
2022-10-30T03:11:16.601Z,100601.91
2022-10-30T03:13:45.837Z,100606.53
2022-10-30T03:16:15.804Z,100602.53
2022-10-30T03:18:44.484Z,100602.94
2022-10-30T03:21:15.782Z,100603.06
2022-10-30T03:23:46.211Z,100607.06
2022-10-30T03:26:16.363Z,100612.28
2022-10-30T03:29:06.907Z,100611.66
2022-10-30T03:31:35.644Z,100615.78
2022-10-30T03:34:33.671Z,100616.09
2022-10-30T03:37:06.652Z,100614.66
2022-10-30T03:39:35.792Z,100618.50
2022-10-30T03:42:06.586Z,100614.47
2022-10-30T03:44:35.249Z,100626.03
2022-10-30T03:47:05.212Z,100616.78
2022-10-30T03:49:38.657Z,100619.00
2022-10-30T03:52:11.808Z,100611.34
2022-10-30T03:54:40.425Z,100614.34
2022-10-30T03:57:11.467Z,100611.91
2022-10-30T04:00:00.015Z,100618.72
2022-10-30T04:02:46.557Z,100626.38
2022-10-30T04:05:16.874Z,100630.19
2022-10-30T04:07:45.457Z,100621.06
2022-10-30T04:10:20.870Z,100628.31
2022-10-30T04:12:54.982Z,100615.06
2022-10-30T04:15:25.204Z,100619.66
2022-10-30T04:17:54.458Z,100617.28
2022-10-30T04:20:24.906Z,100621.56
2022-10-30T04:22:56.943Z,100619.50
2022-10-30T04:25:26.205Z,100627.28
2022-10-30T04:27:56.892Z,100625.66
2022-10-30T04:30:27.331Z,100628.09
2022-10-30T04:32:56.427Z,100614.38
2022-10-30T04:35:26.548Z,100611.72
2022-10-30T04:37:55.457Z,100611.66
2022-10-30T04:40:24.792Z,100610.69
2022-10-30T04:43:00.049Z,100609.28
2022-10-30T04:45:29.185Z,100603.53
2022-10-30T04:48:02.864Z,100602.91
2022-10-30T04:50:33.524Z,100600.63
2022-10-30T04:53:03.180Z,100589.81
2022-10-30T04:55:32.326Z,100592.19
2022-10-30T04:58:04.240Z,100585.03
2022-10-30T05:00:37.040Z,100585.53
2022-10-30T05:03:18.779Z,100593.72
2022-10-30T05:05:48.058Z,100595.16
2022-10-30T05:08:16.718Z,100598.69
2022-10-30T05:10:45.100Z,100604.84
2022-10-30T05:13:17.092Z,100608.63
2022-10-30T05:15:45.873Z,100602.44
2022-10-30T05:18:14.630Z,100597.31
2022-10-30T05:20:43.665Z,100607.25
2022-10-30T05:23:12.738Z,100629.59
2022-10-30T05:25:41.138Z,100622.72
2022-10-30T05:28:11.555Z,100626.28
2022-10-30T05:30:48.440Z,100617.66
2022-10-30T05:33:36.599Z,100623.91
2022-10-30T05:36:06.039Z,100625.25
2022-10-30T05:38:34.686Z,100623.13
2022-10-30T05:41:03.499Z,100632.94
2022-10-30T05:43:31.877Z,100635.66
2022-10-30T05:46:02.066Z,100639.31
2022-10-30T05:48:30.886Z,100637.41
2022-10-30T05:50:59.675Z,100637.06
2022-10-30T05:53:30.831Z,100643.59
2022-10-30T05:56:00.848Z,100644.66
2022-10-30T05:58:33.214Z,100643.97
2022-10-30T06:01:08.410Z,100649.13
2022-10-30T06:03:46.655Z,100641.31
2022-10-30T06:06:15.509Z,100642.19
2022-10-30T06:08:45.287Z,100633.06
2022-10-30T06:12:11.466Z,100626.16
2022-10-30T06:15:06.569Z,100629.38
2022-10-30T06:17:35.463Z,100618.44
2022-10-30T06:20:16.320Z,100612.13
2022-10-30T06:23:22.950Z,100612.25
2022-10-30T06:26:00.231Z,100608.28
2022-10-30T06:28:45.397Z,100603.03
2022-10-30T06:31:16.004Z,100611.63
2022-10-30T06:33:44.928Z,100608.34
2022-10-30T06:36:17.563Z,100613.13
2022-10-30T06:38:46.689Z,100620.94
2022-10-30T06:41:18.766Z,100620.47
2022-10-30T06:44:12.202Z,100639.38
2022-10-30T06:46:41.896Z,100635.78
2022-10-30T06:49:10.889Z,100639.09
2022-10-30T06:51:40.844Z,100636.72
2022-10-30T06:54:09.549Z,100640.41
2022-10-30T06:56:41.055Z,100649.78
2022-10-30T06:59:49.544Z,100643.25
2022-10-30T07:02:44.512Z,100642.56
2022-10-30T07:05:15.549Z,100646.69
2022-10-30T07:07:43.890Z,100651.44
2022-10-30T07:10:12.650Z,100647.13
2022-10-30T07:13:02.004Z,100659.09
2022-10-30T07:15:56.472Z,100643.19
2022-10-30T07:18:33.157Z,100638.06
2022-10-30T07:21:03.401Z,100632.19
2022-10-30T07:23:33.649Z,100641.59
2022-10-30T07:26:12.807Z,100654.09
2022-10-30T07:28:47.127Z,100656.09
2022-10-30T07:31:29.037Z,100650.50
2022-10-30T07:34:27.005Z,100648.59
2022-10-30T07:37:24.606Z,100649.47
2022-10-30T07:40:12.942Z,100635.41
2022-10-30T07:43:02.561Z,100632.09
2022-10-30T07:45:48.835Z,100622.38
2022-10-30T07:48:34.158Z,100625.94
2022-10-30T07:51:09.535Z,100635.03
2022-10-30T07:53:39.352Z,100633.81
2022-10-30T07:56:09.178Z,100636.03
2022-10-30T07:58:52.493Z,100637.97
2022-10-30T08:01:21.287Z,100645.81
2022-10-30T08:03:52.068Z,100638.56
2022-10-30T08:06:28.838Z,100633.66
2022-10-30T08:08:58.555Z,100637.66
2022-10-30T08:11:29.751Z,100650.53
2022-10-30T08:14:00.422Z,100643.75
2022-10-30T08:16:28.917Z,100641.28
2022-10-30T08:19:00.508Z,100632.13
2022-10-30T08:21:29.568Z,100636.28
2022-10-30T08:24:01.178Z,100642.00
2022-10-30T08:26:32.461Z,100636.91
2022-10-30T08:29:01.138Z,100636.69
2022-10-30T08:31:31.728Z,100652.38
2022-10-30T08:34:04.578Z,100647.06
2022-10-30T08:36:38.737Z,100655.09
2022-10-30T08:39:07.456Z,100654.81
2022-10-30T08:41:44.037Z,100656.03
2022-10-30T08:44:12.887Z,100655.78
2022-10-30T08:47:01.419Z,100645.41
2022-10-30T08:49:31.565Z,100660.53
2022-10-30T08:52:02.086Z,100653.09
2022-10-30T08:54:30.744Z,100654.03
2022-10-30T08:56:59.443Z,100640.66
2022-10-30T08:59:28.199Z,100633.28
2022-10-30T09:01:59.818Z,100630.66
2022-10-30T09:04:48.640Z,100640.41
2022-10-30T09:07:58.199Z,100646.63
2022-10-30T09:11:01.143Z,100644.78
2022-10-30T09:13:30.431Z,100653.03
2022-10-30T09:16:01.373Z,100659.88
2022-10-30T09:18:32.157Z,100652.03
2022-10-30T09:21:04.900Z,100645.84
2022-10-30T09:23:39.256Z,100653.88
2022-10-30T09:26:40.405Z,100638.31
2022-10-30T09:29:18.644Z,100643.28
2022-10-30T09:32:01.907Z,100646.19
2022-10-30T09:34:32.802Z,100656.97
2022-10-30T09:37:38.905Z,100647.91
2022-10-30T09:40:25.019Z,100646.56
2022-10-30T09:42:56.427Z,100648.50
2022-10-30T09:45:49.397Z,100651.19
2022-10-30T09:48:45.805Z,100664.06
2022-10-30T09:51:31.263Z,100662.16
2022-10-30T09:54:10.466Z,100665.19
2022-10-30T09:56:46.926Z,100671.75
2022-10-30T09:59:24.434Z,100654.09
2022-10-30T10:01:55.521Z,100658.34
2022-10-30T10:04:27.388Z,100648.50
2022-10-30T10:07:22.058Z,100644.06
2022-10-30T10:10:03.016Z,100634.59
2022-10-30T10:13:01.399Z,100652.03
2022-10-30T10:15:36.434Z,100651.41
2022-10-30T10:18:12.908Z,100651.78
2022-10-30T10:20:43.875Z,100657.31
2022-10-30T10:23:18.525Z,100647.84
2022-10-30T10:25:54.236Z,100647.88
2022-10-30T10:28:42.421Z,100651.56
2022-10-30T10:31:20.130Z,100663.63
2022-10-30T10:33:59.339Z,100655.78
2022-10-30T10:36:33.399Z,100651.31
2022-10-30T10:39:13.905Z,100655.91
2022-10-30T10:41:54.919Z,100657.47
2022-10-30T10:44:33.539Z,100655.13
2022-10-30T10:47:18.745Z,100654.03
2022-10-30T10:49:57.926Z,100647.88
2022-10-30T10:52:34.486Z,100640.25
2022-10-30T10:55:07.106Z,100633.41
2022-10-30T10:57:39.760Z,100643.09
2022-10-30T11:00:10.179Z,100638.75
2022-10-30T11:02:42.670Z,100644.34
2022-10-30T11:05:19.813Z,100632.34
2022-10-30T11:07:49.539Z,100634.44
2022-10-30T11:10:20.385Z,100634.41
2022-10-30T11:12:50.860Z,100625.06
2022-10-30T11:15:28.225Z,100626.09
2022-10-30T11:18:01.558Z,100623.88
2022-10-30T11:20:34.839Z,100620.56
2022-10-30T11:23:03.539Z,100623.19
2022-10-30T11:25:36.149Z,100609.22
2022-10-30T11:28:07.217Z,100611.63
2022-10-30T11:30:35.864Z,100615.34
2022-10-30T11:33:22.825Z,100624.91
2022-10-30T11:35:51.468Z,100620.31
2022-10-30T11:38:21.373Z,100618.84
2022-10-30T11:40:52.942Z,100630.28
2022-10-30T11:43:25.611Z,100625.72
2022-10-30T11:45:54.895Z,100637.31
2022-10-30T11:48:27.357Z,100623.72
2022-10-30T11:50:59.631Z,100620.22
2022-10-30T11:53:34.217Z,100625.53
2022-10-30T11:56:03.652Z,100615.06
2022-10-30T11:58:36.239Z,100620.91
2022-10-30T12:01:07.406Z,100614.78
2022-10-30T12:03:38.039Z,100614.94
2022-10-30T12:06:11.283Z,100604.44
2022-10-30T12:08:39.911Z,100605.50
2022-10-30T12:11:08.673Z,100596.88
2022-10-30T12:13:41.915Z,100594.97
2022-10-30T12:16:20.473Z,100602.38
2022-10-30T12:18:56.830Z,100599.09
2022-10-30T12:21:26.041Z,100606.44
2022-10-30T12:23:57.891Z,100609.28
2022-10-30T12:26:27.241Z,100598.59
2022-10-30T12:29:00.832Z,100595.53
2022-10-30T12:31:36.027Z,100603.31
2022-10-30T12:34:13.580Z,100595.69
2022-10-30T12:36:47.378Z,100595.63
2022-10-30T12:39:22.530Z,100592.13
2022-10-30T12:41:58.570Z,100588.97
2022-10-30T12:44:30.650Z,100581.94
2022-10-30T12:47:02.585Z,100590.19
2022-10-30T12:49:37.924Z,100589.19
2022-10-30T12:52:10.282Z,100584.59
2022-10-30T12:54:44.209Z,100583.66
2022-10-30T12:57:16.457Z,100584.00
2022-10-30T12:59:56.311Z,100583.28
2022-10-30T13:02:44.574Z,100578.25
2022-10-30T13:05:26.872Z,100586.03
2022-10-30T13:08:04.210Z,100591.25
2022-10-30T13:10:35.274Z,100567.94
2022-10-30T13:13:09.326Z,100582.66
2022-10-30T13:15:43.724Z,100573.97
2022-10-30T13:18:17.835Z,100574.25
2022-10-30T13:20:57.680Z,100581.16
2022-10-30T13:23:29.773Z,100577.66
2022-10-30T13:26:08.721Z,100570.84
2022-10-30T13:28:43.311Z,100581.22
2022-10-30T13:31:19.190Z,100574.56
2022-10-30T13:33:52.686Z,100580.25
2022-10-30T13:36:26.923Z,100571.56
2022-10-30T13:39:00.232Z,100563.78
2022-10-30T13:41:36.274Z,100567.94
2022-10-30T13:44:09.257Z,100563.91
2022-10-30T13:46:52.640Z,100566.19
2022-10-30T13:49:39.906Z,100567.03
2022-10-30T13:52:14.712Z,100561.84
2022-10-30T13:54:47.400Z,100570.63
2022-10-30T13:57:20.319Z,100569.84
2022-10-30T13:59:55.131Z,100569.47
2022-10-30T14:02:44.287Z,100563.81
2022-10-30T14:05:24.402Z,100556.16
2022-10-30T14:07:54.744Z,100553.91
2022-10-30T14:10:30.191Z,100554.31
2022-10-30T14:13:12.701Z,100560.28
2022-10-30T14:15:43.939Z,100569.41
2022-10-30T14:18:31.770Z,100564.47
2022-10-30T14:21:01.340Z,100563.25
2022-10-30T14:24:55.556Z,100555.09
2022-10-30T14:27:28.333Z,100551.78
2022-10-30T14:30:47.096Z,100552.63
2022-10-30T14:34:47.531Z,100559.25
2022-10-30T14:37:16.537Z,100558.03
2022-10-30T14:39:46.355Z,100553.41
2022-10-30T14:42:16.548Z,100552.59
2022-10-30T14:45:06.423Z,100563.31
2022-10-30T14:47:53.849Z,100568.13
2022-10-30T14:50:34.241Z,100573.91
2022-10-30T14:53:31.803Z,100569.72
2022-10-30T14:56:06.564Z,100565.13
2022-10-30T14:58:36.411Z,100549.22
2022-10-30T15:01:29.096Z,100547.84
2022-10-30T15:04:15.835Z,100565.84
2022-10-30T15:06:58.768Z,100556.50
2022-10-30T15:09:40.953Z,100546.56
2022-10-30T15:12:23.901Z,100549.69
2022-10-30T15:14:55.821Z,100544.50
2022-10-30T15:17:29.655Z,100551.34
2022-10-30T15:19:59.603Z,100550.31
2022-10-30T15:22:31.314Z,100554.22
2022-10-30T15:25:00.386Z,100557.25
2022-10-30T15:27:29.390Z,100556.84
2022-10-30T15:30:01.025Z,100558.75
2022-10-30T15:32:29.667Z,100573.16
2022-10-30T15:35:03.043Z,100567.50
2022-10-30T15:37:33.436Z,100560.59
2022-10-30T15:40:20.330Z,100566.69
2022-10-30T15:42:49.980Z,100552.78
2022-10-30T15:45:20.099Z,100543.53
2022-10-30T15:47:50.484Z,100543.34
2022-10-30T15:50:21.803Z,100566.41
2022-10-30T15:52:54.072Z,100572.88
2022-10-30T15:55:27.181Z,100557.19
2022-10-30T15:58:03.554Z,100558.16
2022-10-30T16:00:35.781Z,100545.44
2022-10-30T16:03:06.343Z,100537.56
2022-10-30T16:05:35.459Z,100541.66
2022-10-30T16:08:12.324Z,100539.22
2022-10-30T16:10:46.932Z,100548.97
2022-10-30T16:13:19.056Z,100547.03
2022-10-30T16:15:49.794Z,100547.41
2022-10-30T16:18:21.368Z,100549.66
2022-10-30T16:20:51.699Z,100550.91
2022-10-30T16:23:22.363Z,100553.03
2022-10-30T16:25:55.241Z,100549.31
2022-10-30T16:28:25.693Z,100554.06
2022-10-30T16:30:54.090Z,100564.44
2022-10-30T16:33:26.681Z,100565.03
2022-10-30T16:35:56.200Z,100557.72
2022-10-30T16:38:30.167Z,100560.81
2022-10-30T16:40:58.678Z,100558.34
2022-10-30T16:43:29.950Z,100554.22
2022-10-30T16:46:05.973Z,100550.91
2022-10-30T16:48:36.746Z,100553.97
2022-10-30T16:51:05.966Z,100556.50
2022-10-30T16:53:36.210Z,100557.66
2022-10-30T16:56:05.136Z,100565.22
2022-10-30T16:58:33.536Z,100568.13
2022-10-30T17:01:07.101Z,100569.66
2022-10-30T17:03:38.341Z,100575.41
2022-10-30T17:06:08.921Z,100575.69
2022-10-30T17:08:42.859Z,100574.44
2022-10-30T17:11:19.890Z,100578.28
2022-10-30T17:14:17.886Z,100577.22
2022-10-30T17:16:54.361Z,100577.84
2022-10-30T17:19:48.340Z,100569.41
2022-10-30T17:22:20.424Z,100576.34
2022-10-30T17:24:50.508Z,100569.28
2022-10-30T17:27:31.534Z,100580.44
2022-10-30T17:30:00.199Z,100579.28
2022-10-30T17:32:29.906Z,100576.81
2022-10-30T17:35:02.067Z,100585.66
2022-10-30T17:37:30.448Z,100585.56
2022-10-30T17:40:00.399Z,100578.16
2022-10-30T17:42:29.054Z,100576.22
2022-10-30T17:44:57.693Z,100574.91
2022-10-30T17:47:26.372Z,100573.41
2022-10-30T17:49:54.612Z,100580.94
2022-10-30T17:52:23.198Z,100572.28
2022-10-30T17:54:52.159Z,100574.25
2022-10-30T17:57:22.881Z,100575.75
2022-10-30T17:59:51.472Z,100576.59
2022-10-30T18:02:21.981Z,100569.13
2022-10-30T18:04:52.665Z,100569.50
2022-10-30T18:07:21.362Z,100570.66
2022-10-30T18:09:50.050Z,100557.34
2022-10-30T18:12:19.329Z,100557.34
2022-10-30T18:14:49.280Z,100559.41
2022-10-30T18:17:17.865Z,100569.56
2022-10-30T18:19:46.124Z,100568.53
2022-10-30T18:22:14.704Z,100564.88
2022-10-30T18:24:43.481Z,100567.72
2022-10-30T18:27:12.213Z,100569.00
2022-10-30T18:29:40.793Z,100568.94
2022-10-30T18:32:11.870Z,100571.13
2022-10-30T18:34:40.142Z,100569.97
2022-10-30T18:37:09.920Z,100570.34
2022-10-30T18:39:38.698Z,100569.59
2022-10-30T18:42:07.301Z,100573.50
2022-10-30T18:44:35.900Z,100581.03
2022-10-30T18:47:06.602Z,100584.94
2022-10-30T18:49:36.102Z,100581.56
2022-10-30T18:52:04.884Z,100579.88
2022-10-30T18:54:33.548Z,100575.34
2022-10-30T18:57:02.472Z,100572.66
2022-10-30T18:59:31.114Z,100571.00
2022-10-30T19:01:59.990Z,100573.63
2022-10-30T19:04:28.451Z,100566.47
2022-10-30T19:06:58.568Z,100560.47
2022-10-30T19:09:27.295Z,100566.78
2022-10-30T19:11:55.846Z,100566.03
2022-10-30T19:14:25.218Z,100567.84
2022-10-30T19:16:53.492Z,100573.47
2022-10-30T19:19:22.161Z,100576.91
2022-10-30T19:21:52.591Z,100567.16
2022-10-30T19:24:22.647Z,100572.56
2022-10-30T19:26:51.348Z,100571.44
2022-10-30T19:29:19.971Z,100566.88
2022-10-30T19:31:49.237Z,100577.06
2022-10-30T19:34:17.848Z,100576.28
2022-10-30T19:36:46.496Z,100579.50
2022-10-30T19:39:16.990Z,100586.09
2022-10-30T19:41:46.990Z,100584.31
2022-10-30T19:44:15.622Z,100580.06
2022-10-30T19:46:43.860Z,100577.13
2022-10-30T19:49:18.619Z,100578.50
2022-10-30T19:51:48.632Z,100579.72
2022-10-30T19:54:17.192Z,100575.16
2022-10-30T19:56:47.182Z,100573.84
2022-10-30T19:59:16.516Z,100589.13
2022-10-30T20:01:45.221Z,100584.22
2022-10-30T20:04:14.053Z,100590.03
2022-10-30T20:06:42.849Z,100593.09
2022-10-30T20:09:12.455Z,100589.03
2022-10-30T20:11:41.363Z,100589.09
2022-10-30T20:14:11.395Z,100596.44
2022-10-30T20:16:39.920Z,100591.59
2022-10-30T20:19:28.975Z,100599.34
2022-10-30T20:21:57.671Z,100592.06
2022-10-30T20:24:26.287Z,100593.16
2022-10-30T20:26:57.243Z,100601.06
2022-10-30T20:29:27.367Z,100604.22
2022-10-30T20:31:55.628Z,100604.16
2022-10-30T20:34:24.219Z,100596.06
2022-10-30T20:36:52.811Z,100594.56
2022-10-30T20:39:21.366Z,100602.88
2022-10-30T20:41:49.921Z,100595.31
2022-10-30T20:44:18.455Z,100598.44
2022-10-30T20:46:48.083Z,100594.53
2022-10-30T20:49:17.479Z,100608.94
2022-10-30T20:51:47.686Z,100607.03
2022-10-30T20:54:16.354Z,100607.28
2022-10-30T20:56:45.026Z,100610.50
2022-10-30T20:59:13.590Z,100609.13
2022-10-30T21:01:41.926Z,100609.22
2022-10-30T21:04:12.097Z,100611.25
2022-10-30T21:06:40.857Z,100611.22
2022-10-30T21:09:10.103Z,100605.75
2022-10-30T21:11:38.792Z,100597.22
2022-10-30T21:14:07.462Z,100599.72
2022-10-30T21:16:35.746Z,100600.03
2022-10-30T21:19:04.509Z,100593.00
2022-10-30T21:21:34.666Z,100595.81
2022-10-30T21:24:03.279Z,100600.28
2022-10-30T21:26:31.831Z,100588.03
2022-10-30T21:29:00.428Z,100592.63
2022-10-30T21:31:28.650Z,100590.59
2022-10-30T21:33:57.249Z,100589.06
2022-10-30T21:36:25.836Z,100592.41
2022-10-30T21:38:55.800Z,100593.69
2022-10-30T21:41:24.982Z,100595.56
2022-10-30T21:43:54.136Z,100599.19
2022-10-30T21:46:23.699Z,100596.31
2022-10-30T21:48:52.457Z,100596.41
2022-10-30T21:51:22.771Z,100594.13
2022-10-30T21:53:51.728Z,100598.44
2022-10-30T21:56:23.363Z,100598.81
2022-10-30T21:58:52.153Z,100595.00
2022-10-30T22:01:22.135Z,100594.00
2022-10-30T22:03:50.917Z,100593.41
2022-10-30T22:06:20.679Z,100585.75
2022-10-30T22:08:50.244Z,100588.03
2022-10-30T22:11:19.110Z,100585.84
2022-10-30T22:13:48.799Z,100588.16
2022-10-30T22:16:17.377Z,100588.22
2022-10-30T22:18:45.997Z,100585.06
2022-10-30T22:21:14.819Z,100583.63
2022-10-30T22:23:43.716Z,100582.34
2022-10-30T22:26:14.549Z,100579.22
2022-10-30T22:28:42.529Z,100572.13
2022-10-30T22:31:14.273Z,100572.63
2022-10-30T22:33:43.287Z,100577.38
2022-10-30T22:36:16.250Z,100572.25
2022-10-30T22:38:45.001Z,100571.91
2022-10-30T22:41:15.307Z,100570.47
2022-10-30T22:43:44.754Z,100572.38
2022-10-30T22:46:15.679Z,100571.91
2022-10-30T22:48:44.803Z,100574.38
2022-10-30T22:51:15.670Z,100564.44
2022-10-30T22:53:46.333Z,100566.00
2022-10-30T22:56:17.200Z,100566.47
2022-10-30T22:58:45.313Z,100567.84
2022-10-30T23:01:16.763Z,100564.16
2022-10-30T23:03:45.778Z,100579.16
2022-10-30T23:06:15.012Z,100569.88
2022-10-30T23:08:43.888Z,100567.38
2022-10-30T23:11:12.637Z,100563.19
2022-10-30T23:13:41.494Z,100572.38
2022-10-30T23:16:14.179Z,100571.28
2022-10-30T23:18:44.840Z,100570.56
2022-10-30T23:21:15.163Z,100575.31
2022-10-30T23:23:44.647Z,100581.31
2022-10-30T23:26:17.130Z,100582.59
2022-10-30T23:28:45.922Z,100584.16
2022-10-30T23:31:19.622Z,100589.91
2022-10-30T23:33:50.804Z,100590.41
2022-10-30T23:36:20.097Z,100589.41
2022-10-30T23:38:52.428Z,100597.94
2022-10-30T23:41:21.360Z,100590.13
2022-10-30T23:43:49.729Z,100601.78
2022-10-30T23:46:18.474Z,100603.47
2022-10-30T23:48:47.094Z,100598.47
2022-10-30T23:51:17.466Z,100591.63
2022-10-30T23:53:45.832Z,100593.44
2022-10-30T23:56:14.796Z,100598.81
2022-10-30T23:58:44.311Z,100591.13
